TimeCDT,TemperatureF,Dew PointF,Humidity,Sea Level PressureIn,VisibilityMPH,Wind Direction,Wind SpeedMPH,Gust SpeedMPH,PrecipitationIn,Events,Conditions,WindDirDegrees,DateUTC
12:15 AM,19.4,10.4,68,30.12,10.0,Calm,Calm,-,N/A,,Clear,0,2013-03-21 05:15:00
12:35 AM,17.6,10.4,73,30.12,10.0,NE,4.6,-,N/A,,Partly Cloudy,40,2013-03-21 05:35:00
12:55 AM,17.6,10.4,73,30.11,10.0,NE,6.9,-,N/A,,Partly Cloudy,40,2013-03-21 05:55:00
1:15 AM,17.6,10.4,73,30.11,10.0,NE,9.2,-,N/A,,Partly Cloudy,50,2013-03-21 06:15:00
1:35 AM,17.6,10.4,73,30.10,10.0,ENE,8.1,-,N/A,,Clear,60,2013-03-21 06:35:00
1:55 AM,15.8,10.4,79,30.10,10.0,ENE,6.9,-,N/A,,Clear,70,2013-03-21 06:55:00
2:15 AM,15.8,10.4,79,30.09,10.0,ENE,8.1,-,N/A,,Clear,60,2013-03-21 07:15:00
2:35 AM,15.8,10.4,79,30.08,10.0,ENE,12.7,-,N/A,,Clear,60,2013-03-21 07:35:00
2:55 AM,15.8,8.6,73,30.09,10.0,ENE,6.9,-,N/A,,Clear,60,2013-03-21 07:55:00
3:35 AM,14.0,8.6,79,30.08,10.0,ENE,5.8,-,N/A,,Clear,70,2013-03-21 08:35:00
3:55 AM,14.0,8.6,79,30.09,10.0,Calm,Calm,-,N/A,,Clear,0,2013-03-21 08:55:00
4:15 AM,14.0,8.6,79,30.09,10.0,Calm,Calm,-,N/A,,Clear,0,2013-03-21 09:15:00
4:35 AM,14.0,8.6,79,30.08,10.0,ENE,3.5,-,N/A,,Clear,70,2013-03-21 09:35:00
4:55 AM,14.0,8.6,79,30.08,10.0,Calm,Calm,-,N/A,,Clear,0,2013-03-21 09:55:00
5:15 AM,14.0,8.6,79,30.07,10.0,ENE,6.9,-,N/A,,Clear,70,2013-03-21 10:15:00
5:35 AM,14.0,8.6,79,30.06,10.0,ENE,8.1,-,N/A,,Clear,60,2013-03-21 10:35:00
5:55 AM,14.0,8.6,79,30.06,10.0,ENE,5.8,-,N/A,,Clear,70,2013-03-21 10:55:00
6:15 AM,12.2,8.6,85,30.06,10.0,ENE,5.8,-,N/A,,Mostly Cloudy,70,2013-03-21 11:15:00
6:35 AM,12.2,8.6,85,30.06,10.0,ENE,4.6,-,N/A,,Mostly Cloudy,70,2013-03-21 11:35:00
6:55 AM,12.2,8.6,85,30.06,10.0,East,3.5,-,N/A,,Mostly Cloudy,90,2013-03-21 11:55:00
7:15 AM,12.2,8.6,85,30.06,10.0,East,4.6,-,N/A,,Partly Cloudy,100,2013-03-21 12:15:00
7:35 AM,12.2,8.6,85,30.06,10.0,East,5.8,-,N/A,,Clear,100,2013-03-21 12:35:00
7:55 AM,14.0,6.8,73,30.06,10.0,East,9.2,-,N/A,,Clear,100,2013-03-21 12:55:00
8:15 AM,14.0,6.8,73,30.06,10.0,East,10.4,-,N/A,,Clear,90,2013-03-21 13:15:00
8:35 AM,15.8,6.8,68,30.06,10.0,East,8.1,-,N/A,,Clear,100,2013-03-21 13:35:00
8:55 AM,15.8,8.6,73,30.06,10.0,ESE,8.1,13.8,N/A,,Clear,110,2013-03-21 13:55:00
9:15 AM,15.8,10.4,79,30.06,10.0,East,9.2,-,N/A,,Clear,100,2013-03-21 14:15:00
9:35 AM,17.6,10.4,73,30.05,10.0,ESE,5.8,12.7,N/A,,Clear,110,2013-03-21 14:35:00
9:55 AM,19.4,10.4,68,30.05,10.0,SE,8.1,-,N/A,,Clear,140,2013-03-21 14:55:00
10:15 AM,19.4,10.4,68,30.05,10.0,SE,6.9,12.7,N/A,,Clear,140,2013-03-21 15:15:00
10:35 AM,21.2,10.4,63,30.04,10.0,SE,8.1,-,N/A,,Clear,140,2013-03-21 15:35:00
10:55 AM,21.2,10.4,63,30.03,10.0,SE,8.1,-,N/A,,Clear,130,2013-03-21 15:55:00
12:15 PM,28.4,8.6,43,30.01,10.0,SSE,6.9,-,N/A,,Partly Cloudy,150,2013-03-21 17:15:00
12:55 PM,28.4,8.6,43,30.00,10.0,SE,8.1,-,N/A,,Clear,140,2013-03-21 17:55:00
1:15 PM,32.0,10.4,41,29.99,10.0,SE,5.8,-,N/A,,Clear,130,2013-03-21 18:15:00
1:35 PM,32.0,10.4,41,29.98,10.0,SE,5.8,12.7,N/A,,Clear,140,2013-03-21 18:35:00
1:55 PM,32.0,10.4,41,29.98,10.0,Variable,6.9,12.7,N/A,,Mostly Cloudy,0,2013-03-21 18:55:00
2:15 PM,33.8,12.2,41,29.97,10.0,Variable,5.8,13.8,N/A,,Scattered Clouds,0,2013-03-21 19:15:00
2:35 PM,33.8,12.2,41,29.96,10.0,Variable,5.8,13.8,N/A,,Mostly Cloudy,0,2013-03-21 19:35:00
2:55 PM,33.8,14.0,44,29.96,10.0,East,9.2,16.1,N/A,,Overcast,80,2013-03-21 19:55:00
3:15 PM,33.8,14.0,44,29.95,10.0,East,11.5,-,N/A,,Overcast,90,2013-03-21 20:15:00
3:35 PM,33.8,14.0,44,29.95,10.0,East,10.4,-,N/A,,Overcast,90,2013-03-21 20:35:00
3:55 PM,33.8,15.8,48,29.94,10.0,ESE,8.1,16.1,N/A,,Overcast,120,2013-03-21 20:55:00
4:15 PM,33.8,15.8,48,29.94,10.0,ENE,9.2,-,N/A,,Overcast,70,2013-03-21 21:15:00
4:55 PM,32.0,17.6,55,29.93,10.0,East,9.2,15.0,N/A,,Overcast,100,2013-03-21 21:55:00
5:15 PM,32.0,17.6,55,29.94,10.0,ESE,9.2,16.1,N/A,,Overcast,120,2013-03-21 22:15:00
5:35 PM,32.0,17.6,55,29.93,10.0,East,13.8,-,N/A,,Overcast,100,2013-03-21 22:35:00
5:55 PM,32.0,17.6,55,29.93,10.0,East,12.7,-,N/A,,Overcast,80,2013-03-21 22:55:00
6:15 PM,30.2,17.6,60,29.94,10.0,East,9.2,-,N/A,,Overcast,90,2013-03-21 23:15:00
6:35 PM,30.2,17.6,60,29.94,10.0,East,8.1,13.8,N/A,,Overcast,80,2013-03-21 23:35:00
6:55 PM,30.2,17.6,60,29.95,10.0,East,10.4,-,N/A,,Mostly Cloudy,90,2013-03-21 23:55:00
7:15 PM,28.4,15.8,59,29.96,10.0,East,5.8,-,N/A,,Partly Cloudy,90,2013-03-22 00:15:00
7:35 PM,28.4,17.6,64,29.96,10.0,East,5.8,-,N/A,,Clear,100,2013-03-22 00:35:00
7:55 PM,26.6,17.6,69,29.97,10.0,East,5.8,-,N/A,,Clear,90,2013-03-22 00:55:00
8:15 PM,26.6,17.6,69,29.98,10.0,East,6.9,-,N/A,,Clear,90,2013-03-22 01:15:00
8:55 PM,24.8,17.6,74,29.98,10.0,ENE,6.9,-,N/A,,Partly Cloudy,70,2013-03-22 01:55:00
9:15 PM,26.6,19.4,74,29.98,10.0,ENE,9.2,-,N/A,,Clear,70,2013-03-22 02:15:00
9:55 PM,24.8,19.4,80,29.99,10.0,ENE,6.9,-,N/A,,Clear,70,2013-03-22 02:55:00
10:15 PM,24.8,19.4,80,30.00,10.0,East,8.1,-,N/A,,Clear,80,2013-03-22 03:15:00
10:35 PM,24.8,19.4,80,30.01,10.0,ENE,8.1,-,N/A,,Clear,70,2013-03-22 03:35:00
10:55 PM,24.8,19.4,80,30.01,10.0,East,6.9,-,N/A,,Clear,80,2013-03-22 03:55:00
11:15 PM,24.8,19.4,80,30.01,10.0,ENE,6.9,-,N/A,,Clear,70,2013-03-22 04:15:00
11:35 PM,23.0,19.4,86,30.01,10.0,East,5.8,-,N/A,,Clear,80,2013-03-22 04:35:00
11:55 PM,23.0,19.4,86,30.02,10.0,ENE,4.6,-,N/A,,Clear,70,2013-03-22 04:55:00